Time;durP1;ratioP1;P1;durP2;ratioP2;P2;SDS_P1;SDS_P2;PMS_P1;PMS_P2;Temp;Humidity;BMP_temperature;BMP_pressure;BME280_temperature;BME280_humidity;BME280_pressure;Samples;Min_cycle;Max_cycle;Signal;HPM_P1;HPM_P2
2021/12/18 00:01:15;;;;;;;;;10.75;9.75;;;;;20.78;40.77;103208.59;5005038;28;51221;-54
2021/12/18 00:03:40;;;;;;;;;13.00;9.75;;;;;20.75;41.34;103199.63;5001505;28;51180;-52
2021/12/18 00:06:05;;;;;;;;;11.50;10.75;;;;;20.74;40.97;103197.06;5006700;28;51243;-51
2021/12/18 00:08:31;;;;;;;;;10.50;10.50;;;;;20.73;40.82;103203.56;5008041;28;51125;-53
2021/12/18 00:10:56;;;;;;;;;10.50;9.50;;;;;20.72;40.86;103202.72;5006451;28;51184;-51
2021/12/18 00:13:23;;;;;;;;;10.75;10.00;;;;;20.71;41.03;103195.47;5008690;28;50944;-48
2021/12/18 00:15:49;;;;;;;;;14.50;10.25;;;;;20.69;41.20;103192.03;5007857;28;51447;-54
2021/12/18 00:18:14;;;;;;;;;12.50;12.25;;;;;20.66;40.91;103189.63;5007804;28;51143;-52
2021/12/18 00:20:40;;;;;;;;;10.00;9.25;;;;;20.67;41.33;103194.09;5006334;28;51423;-50
2021/12/18 00:23:06;;;;;;;;;10.75;9.25;;;;;20.67;40.76;103187.72;5003904;28;51067;-51
2021/12/18 00:25:32;;;;;;;;;8.00;8.00;;;;;20.65;41.13;103190.66;5006589;28;51343;-53
2021/12/18 00:27:58;;;;;;;;;10.00;8.50;;;;;20.64;41.09;103182.56;5014300;28;51195;-52
2021/12/18 00:30:24;;;;;;;;;14.50;10.75;;;;;20.63;41.17;103184.44;5001638;28;51350;-53
2021/12/18 00:32:49;;;;;;;;;12.75;8.50;;;;;20.60;41.20;103179.25;5009914;28;52238;-53
2021/12/18 00:35:17;;;;;;;;;13.50;10.50;;;;;20.61;40.77;103180.97;5005331;28;51084;-51
2021/12/18 00:37:43;;;;;;;;;9.00;9.00;;;;;20.61;40.83;103185.63;5006158;28;51184;-53
2021/12/18 00:40:16;;;;;;;;;8.75;8.25;;;;;20.60;41.24;103184.78;4999898;28;51309;-52
2021/12/18 00:42:48;;;;;;;;;12.00;9.25;;;;;20.58;40.90;103189.59;5004788;28;51838;-55
2021/12/18 00:45:16;;;;;;;;;9.50;9.50;;;;;20.56;40.90;103188.91;5005740;28;50971;-53
2021/12/18 00:47:42;;;;;;;;;9.00;9.00;;;;;20.55;40.75;103178.91;5001201;28;52570;-51
2021/12/18 00:50:14;;;;;;;;;9.00;8.25;;;;;20.54;40.98;103174.44;5011551;28;51228;-53
2021/12/18 00:52:40;;;;;;;;;14.00;10.75;;;;;20.54;41.02;103170.81;5008785;28;52027;-52
2021/12/18 00:55:06;;;;;;;;;12.00;8.75;;;;;20.52;40.76;103170.97;5007772;28;51138;-51
2021/12/18 00:57:31;;;;;;;;;7.00;7.00;;;;;20.52;41.03;103175.59;5007001;28;51014;-52
2021/12/18 01:00:03;;;;;;;;;7.75;7.75;;;;;20.51;40.72;103165.63;5000323;28;51177;-50
2021/12/18 01:02:29;;;;;;;;;10.75;10.75;;;;;20.50;41.10;103167.53;5010983;28;51962;-52
2021/12/18 01:04:55;;;;;;;;;9.25;8.00;;;;;20.49;41.19;103170.44;5007030;28;51055;-50
2021/12/18 01:07:20;;;;;;;;;9.00;8.00;;;;;20.47;40.89;103176.13;5007607;28;51668;-50
2021/12/18 01:12:38;;;;;;;;;7.75;6.00;;;;;20.46;40.89;103174.41;5002858;28;51358;-54
2021/12/18 01:15:21;;;;;;;;;7.00;6.50;;;;;20.44;40.90;103176.47;5005653;28;51279;-54
2021/12/18 01:23:16;;;;;;;;;7.25;7.25;;;;;20.42;40.85;103183.97;5004936;28;52438;-52
2021/12/18 01:25:41;;;;;;;;;7.00;7.00;;;;;20.41;41.16;103185.00;5002565;28;51638;-52
2021/12/18 01:28:07;;;;;;;;;7.50;7.00;;;;;20.40;41.00;103183.28;5017840;28;51164;-49
2021/12/18 01:30:33;;;;;;;;;8.50;8.50;;;;;20.39;40.97;103184.31;5006163;28;51492;-50
2021/12/18 01:32:58;;;;;;;;;9.00;9.00;;;;;20.39;41.05;103173.31;4999933;28;51826;-51
2021/12/18 01:35:24;;;;;;;;;8.75;7.25;;;;;20.36;41.11;103176.38;5000204;28;51233;-52
2021/12/18 01:37:50;;;;;;;;;8.50;8.50;;;;;20.37;41.09;103178.13;5001207;28;51141;-51
2021/12/18 01:40:18;;;;;;;;;6.75;6.75;;;;;20.35;41.09;103189.28;5003374;28;51719;-52
2021/12/18 01:43:35;;;;;;;;;7.50;7.00;;;;;20.36;40.82;103192.91;5002080;28;52282;-50
2021/12/18 01:45:42;;;;;;;;;8.75;8.00;;;;;20.34;40.96;103194.97;5000142;28;51221;-53
2021/12/18 01:53:38;;;;;;;;;8.50;7.25;;;;;20.32;41.04;103195.13;5003818;28;51574;-51
2021/12/18 01:56:03;;;;;;;;;9.25;7.00;;;;;20.31;41.11;103195.28;5002706;28;51556;-51
2021/12/18 01:58:29;;;;;;;;;8.25;8.00;;;;;20.31;40.85;103193.38;5001329;28;51466;-51
2021/12/18 02:00:56;;;;;;;;;8.75;7.00;;;;;20.30;40.84;103190.81;5006236;28;51156;-52
2021/12/18 02:03:24;;;;;;;;;10.25;8.50;;;;;20.29;40.86;103195.44;5004729;28;51201;-53
2021/12/18 02:05:51;;;;;;;;;8.75;7.75;;;;;20.27;40.92;103189.25;5002163;28;51246;-52
2021/12/18 02:08:22;;;;;;;;;10.00;9.00;;;;;20.27;40.83;103188.38;5004571;28;51174;-53
2021/12/18 02:10:53;;;;;;;;;8.75;7.50;;;;;20.26;40.93;103184.78;5008020;28;50959;-52
2021/12/18 02:21:26;;;;;;;;;7.50;7.25;;;;;20.22;40.65;103194.41;5005510;28;51132;-53
2021/12/18 02:23:52;;;;;;;;;8.75;6.50;;;;;20.22;40.70;103204.50;5005805;28;52862;-53
2021/12/18 02:26:18;;;;;;;;;9.25;7.75;;;;;20.22;40.94;103204.50;5009007;28;51272;-53
2021/12/18 02:28:47;;;;;;;;;8.75;8.75;;;;;20.21;40.81;103200.91;5008601;28;53092;-50
2021/12/18 02:31:13;;;;;;;;;8.50;7.25;;;;;20.19;41.05;103190.06;5007374;28;51184;-52
2021/12/18 02:33:39;;;;;;;;;9.25;9.00;;;;;20.19;41.07;103194.72;5000906;28;51126;-53
2021/12/18 02:36:07;;;;;;;;;8.75;7.00;;;;;20.18;40.65;103195.72;4999908;28;51084;-50
2021/12/18 02:38:58;;;;;;;;;11.25;7.50;;;;;20.17;41.04;103194.88;5001293;28;50920;-51
2021/12/18 02:41:41;;;;;;;;;7.00;7.00;;;;;20.17;40.83;103202.28;5002335;28;52245;-51
2021/12/18 02:44:12;;;;;;;;;7.00;6.50;;;;;20.16;40.73;103195.91;5008570;28;51369;-50
2021/12/18 02:46:40;;;;;;;;;6.50;6.50;;;;;20.14;40.98;103186.97;5011590;28;51262;-51
2021/12/18 02:49:11;;;;;;;;;8.00;7.00;;;;;20.13;41.16;103190.75;5001232;28;51262;-52
2021/12/18 02:51:36;;;;;;;;;8.75;8.00;;;;;20.13;40.44;103192.63;5000470;28;51092;-52
2021/12/18 02:54:02;;;;;;;;;7.50;7.50;;;;;20.12;40.87;103186.25;5003737;28;53499;-49
2021/12/18 02:56:28;;;;;;;;;8.75;8.00;;;;;20.11;40.54;103189.16;5004978;28;51181;-48
2021/12/18 02:59:03;;;;;;;;;6.00;6.00;;;;;20.11;41.05;103191.91;5004294;28;51373;-51
2021/12/18 03:01:29;;;;;;;;;8.25;6.25;;;;;20.09;40.82;103194.81;5004165;28;51216;-51
2021/12/18 03:03:56;;;;;;;;;8.00;7.75;;;;;20.09;40.69;103192.06;4999899;28;51708;-51
2021/12/18 03:09:53;;;;;;;;;8.75;8.50;;;;;20.09;40.88;103196.72;5000222;28;51254;-50
2021/12/18 03:25:21;;;;;;;;;5.75;5.75;;;;;20.01;41.07;103200.31;5004483;28;51169;-50
2021/12/18 03:27:46;;;;;;;;;4.25;4.25;;;;;20.01;40.66;103192.06;5002511;28;51322;-52
2021/12/18 03:30:14;;;;;;;;;7.50;7.00;;;;;20.01;40.72;103191.16;5005425;28;51235;-49
2021/12/18 03:32:41;;;;;;;;;6.50;6.50;;;;;20.00;40.77;103192.19;5002872;28;51169;-52
2021/12/18 03:35:07;;;;;;;;;6.75;5.00;;;;;20.00;40.87;103193.03;5002867;28;51955;-49
2021/12/18 03:37:34;;;;;;;;;8.00;5.00;;;;;19.98;40.72;103189.59;5002647;28;51186;-53
2021/12/18 03:40:01;;;;;;;;;7.50;6.75;;;;;19.98;41.10;103186.84;5005098;28;52053;-50
2021/12/18 03:42:26;;;;;;;;;9.50;6.00;;;;;19.98;40.87;103188.75;5009677;28;51359;-51
2021/12/18 03:44:51;;;;;;;;;5.00;5.00;;;;;19.96;40.67;103186.16;5004733;28;51817;-51
2021/12/18 03:47:17;;;;;;;;;7.00;5.00;;;;;19.96;40.69;103183.41;5009804;28;51047;-51
2021/12/18 03:49:42;;;;;;;;;6.25;6.25;;;;;19.96;41.02;103186.16;5016242;28;51114;-51
2021/12/18 03:52:07;;;;;;;;;7.00;6.25;;;;;19.95;40.98;103172.56;5023747;28;51144;-50
2021/12/18 03:54:33;;;;;;;;;8.00;7.00;;;;;19.94;40.82;103171.72;5009642;28;50983;-55
2021/12/18 03:56:58;;;;;;;;;7.00;6.00;;;;;19.94;40.91;103174.47;5001345;28;51289;-48
2021/12/18 03:59:24;;;;;;;;;5.75;5.75;;;;;19.92;41.00;103171.00;5009324;28;51122;-51
2021/12/18 04:01:49;;;;;;;;;5.00;5.00;;;;;19.92;40.90;103156.41;5009215;28;51312;-53
2021/12/18 04:04:15;;;;;;;;;6.00;5.50;;;;;19.91;40.68;103166.53;5007086;28;51344;-50
2021/12/18 04:06:42;;;;;;;;;6.00;6.00;;;;;19.90;40.63;103173.03;5010781;28;51052;-51
2021/12/18 04:09:10;;;;;;;;;8.75;5.25;;;;;19.91;40.77;103176.69;5005812;28;51266;-50
2021/12/18 04:11:36;;;;;;;;;5.25;5.25;;;;;19.89;41.03;103174.94;5012081;28;51206;-50
2021/12/18 04:14:03;;;;;;;;;6.50;5.00;;;;;19.88;40.78;103172.34;5001723;28;52737;-51
2021/12/18 04:16:29;;;;;;;;;7.25;5.25;;;;;19.88;40.91;103172.34;5008356;28;51290;-52
2021/12/18 04:18:54;;;;;;;;;7.00;5.00;;;;;19.88;41.11;103177.84;5013273;28;50978;-49
2021/12/18 04:21:20;;;;;;;;;6.00;5.00;;;;;19.87;40.61;103176.13;5018801;28;51164;-51
2021/12/18 04:23:45;;;;;;;;;5.25;5.25;;;;;19.86;41.11;103175.25;5012733;28;51915;-54
2021/12/18 04:26:10;;;;;;;;;6.00;4.50;;;;;19.85;40.93;103169.94;5007816;28;51073;-52
2021/12/18 04:28:36;;;;;;;;;5.50;5.50;;;;;19.85;40.70;103169.94;5014191;28;51148;-51
2021/12/18 04:31:01;;;;;;;;;7.00;6.75;;;;;19.83;40.63;103167.34;5012625;28;51095;-53
2021/12/18 04:33:26;;;;;;;;;4.75;4.75;;;;;19.84;41.12;103168.19;5009437;28;51750;-52
2021/12/18 04:35:52;;;;;;;;;5.00;5.00;;;;;19.83;40.77;103172.84;5011494;28;51293;-52
2021/12/18 04:38:17;;;;;;;;;7.00;7.00;;;;;19.83;40.71;103177.47;5017079;28;51175;-51
2021/12/18 04:40:43;;;;;;;;;7.00;7.00;;;;;19.81;40.86;103172.16;5010480;28;51089;-50
2021/12/18 04:43:09;;;;;;;;;3.75;3.75;;;;;19.82;41.12;103178.50;5002780;28;52661;-52
2021/12/18 04:45:35;;;;;;;;;7.00;5.50;;;;;19.81;40.92;103163.91;5007865;28;51046;-50
2021/12/18 04:48:00;;;;;;;;;4.25;4.25;;;;;19.80;41.01;103170.44;4999665;28;51171;-51
2021/12/18 04:50:25;;;;;;;;;6.00;6.00;;;;;19.80;40.89;103175.03;5021329;28;51061;-53
2021/12/18 04:52:51;;;;;;;;;5.00;5.00;;;;;19.79;41.23;103178.81;5019472;28;51026;-52
2021/12/18 04:55:17;;;;;;;;;4.75;4.75;;;;;19.79;40.92;103181.56;5007016;28;50967;-49
2021/12/18 04:57:43;;;;;;;;;4.50;4.50;;;;;19.78;40.67;103180.69;5002433;28;51064;-53
2021/12/18 05:00:12;;;;;;;;;4.00;4.00;;;;;19.78;40.86;103185.34;5010818;28;50960;-52
2021/12/18 05:02:41;;;;;;;;;5.25;4.00;;;;;19.76;41.03;103179.16;4997243;28;51116;-48
2021/12/18 05:05:08;;;;;;;;;5.75;5.75;;;;;19.76;40.88;103185.50;5000885;28;51316;-49
2021/12/18 05:07:34;;;;;;;;;5.75;5.75;;;;;19.76;40.95;103184.66;5006656;28;51133;-51
2021/12/18 05:10:00;;;;;;;;;8.00;6.00;;;;;19.75;41.05;103180.16;5002675;28;51191;-52
2021/12/18 05:12:25;;;;;;;;;6.00;4.00;;;;;19.75;41.12;103188.41;5011643;28;51813;-52
2021/12/18 05:14:51;;;;;;;;;4.50;4.50;;;;;19.75;40.81;103189.28;5010200;28;51096;-49
2021/12/18 05:17:16;;;;;;;;;4.00;4.00;;;;;19.74;41.13;103186.69;5012153;28;51780;-52
2021/12/18 05:19:42;;;;;;;;;6.00;4.75;;;;;19.74;41.08;103190.31;5004923;28;51137;-52
2021/12/18 05:22:07;;;;;;;;;5.00;5.00;;;;;19.73;41.05;103198.72;5007614;28;51077;-52
2021/12/18 05:24:33;;;;;;;;;6.00;4.75;;;;;19.72;40.85;103195.13;5014396;28;51156;-51
2021/12/18 05:26:58;;;;;;;;;6.75;4.00;;;;;19.71;40.87;103198.91;5015812;28;51296;-52
2021/12/18 05:29:24;;;;;;;;;3.75;3.75;;;;;19.71;41.02;103192.53;5014895;28;51292;-52
2021/12/18 05:31:49;;;;;;;;;4.00;3.00;;;;;19.71;40.65;103184.28;5006856;28;51229;-49
2021/12/18 05:34:21;;;;;;;;;3.50;3.00;;;;;19.70;40.80;103191.66;5011437;28;51144;-53
2021/12/18 05:39:20;;;;;;;;;5.00;4.00;;;;;19.68;40.63;103182.69;5017109;28;51272;-51
2021/12/18 05:41:47;;;;;;;;;4.25;4.25;;;;;19.67;40.73;103182.84;5029321;28;53115;-47
2021/12/18 05:44:13;;;;;;;;;3.75;3.75;;;;;19.67;41.21;103188.34;5008027;28;51093;-51
2021/12/18 05:46:38;;;;;;;;;5.00;4.25;;;;;19.66;40.74;103189.38;5000818;28;51735;-49
2021/12/18 05:49:03;;;;;;;;;4.00;4.00;;;;;19.65;40.76;103180.28;5006027;28;51040;-50
2021/12/18 05:51:31;;;;;;;;;4.00;4.00;;;;;19.65;40.76;103184.91;5017573;28;51972;-50
2021/12/18 05:53:56;;;;;;;;;4.25;3.00;;;;;19.65;41.17;103188.53;5006870;28;51417;-52
2021/12/18 05:56:22;;;;;;;;;3.25;3.25;;;;;19.64;40.90;103189.56;5010941;28;51160;-50
2021/12/18 05:58:47;;;;;;;;;4.00;3.75;;;;;19.63;40.71;103179.56;5017570;28;51160;-49
2021/12/18 06:01:13;;;;;;;;;5.25;4.50;;;;;19.63;40.81;103186.97;5014637;28;52036;-51
2021/12/18 06:03:40;;;;;;;;;3.75;3.00;;;;;19.62;41.02;103182.50;5019284;28;51139;-50
2021/12/18 06:06:05;;;;;;;;;4.00;3.00;;;;;19.61;41.19;103176.13;5004967;28;51106;-51
2021/12/18 06:08:32;;;;;;;;;4.00;4.00;;;;;19.61;41.17;103173.38;5004406;28;51091;-51
2021/12/18 06:11:04;;;;;;;;;7.50;5.00;;;;;19.59;40.74;103176.31;5006839;28;52484;-52
2021/12/18 06:13:30;;;;;;;;;4.00;4.00;;;;;19.59;41.12;103172.66;5001898;28;51437;-51
2021/12/18 06:15:56;;;;;;;;;5.75;3.75;;;;;19.59;40.99;103178.16;5013623;28;51060;-52
2021/12/18 06:18:21;;;;;;;;;4.00;4.00;;;;;19.57;41.18;103170.06;5009961;28;51103;-51
2021/12/18 06:20:46;;;;;;;;;4.00;4.00;;;;;19.58;40.78;103170.94;5013010;28;58815;-49
2021/12/18 06:23:12;;;;;;;;;4.25;4.25;;;;;19.58;40.94;103168.19;5006840;28;51243;-51
2021/12/18 06:25:37;;;;;;;;;5.75;5.00;;;;;19.58;41.02;103174.53;5005209;28;51138;-52
2021/12/18 06:28:02;;;;;;;;;4.00;3.00;;;;;19.56;40.90;103160.09;5017841;28;51097;-52
2021/12/18 06:30:28;;;;;;;;;6.25;5.25;;;;;19.56;40.72;103172.97;5008160;28;51123;-52
2021/12/18 06:32:53;;;;;;;;;4.75;4.75;;;;;19.56;40.79;103170.22;5008277;28;51085;-52
2021/12/18 06:35:19;;;;;;;;;3.00;3.00;;;;;19.55;40.81;103171.22;5006025;28;51436;-53
2021/12/18 06:37:44;;;;;;;;;4.00;3.50;;;;;19.54;40.67;103178.63;5005130;28;51005;-51
2021/12/18 06:40:10;;;;;;;;;4.00;4.00;;;;;19.53;40.73;103170.53;5005051;28;52467;-51
2021/12/18 06:42:36;;;;;;;;;4.00;4.00;;;;;19.53;40.88;103176.88;5010806;28;51605;-54
2021/12/18 06:45:01;;;;;;;;;5.00;4.00;;;;;19.53;41.10;103176.88;5013163;28;50946;-52
2021/12/18 06:47:27;;;;;;;;;3.00;3.00;;;;;19.53;41.05;103185.13;5002514;28;50986;-53
2021/12/18 06:49:52;;;;;;;;;4.00;3.50;;;;;19.53;41.07;103185.13;5002458;28;50942;-49
2021/12/18 06:52:17;;;;;;;;;3.75;3.75;;;;;19.53;41.06;103184.28;5010088;28;51132;-52
2021/12/18 06:54:43;;;;;;;;;2.25;2.25;;;;;19.52;40.83;103185.31;5009067;28;51025;-48
2021/12/18 06:57:08;;;;;;;;;4.00;4.00;;;;;19.52;40.80;103199.03;4996444;28;51116;-53
2021/12/18 06:59:33;;;;;;;;;11.25;10.00;;;;;19.51;40.66;103198.19;5014105;28;51190;-53
2021/12/18 07:01:59;;;;;;;;;15.25;13.25;;;;;19.49;39.72;103196.63;5008178;28;51102;-49
2021/12/18 07:04:24;;;;;;;;;23.00;20.25;;;;;19.45;39.29;103192.44;5004584;28;51223;-53
2021/12/18 07:06:54;;;;;;;;;18.25;17.25;;;;;19.41;39.15;103185.56;5016454;28;51404;-52
2021/12/18 07:09:20;;;;;;;;;17.75;15.50;;;;;19.36;38.88;103196.16;4998242;28;52867;-50
2021/12/18 07:11:45;;;;;;;;;19.25;18.00;;;;;19.32;38.75;103201.09;5007753;28;51629;-52
2021/12/18 07:14:12;;;;;;;;;21.00;21.00;;;;;19.26;38.52;103199.84;5007073;28;51139;-48
2021/12/18 07:16:38;;;;;;;;;18.25;17.00;;;;;19.20;38.23;103196.88;5009633;28;51322;-53
2021/12/18 07:19:03;;;;;;;;;21.00;19.00;;;;;19.15;38.08;103208.31;5005173;28;50999;-55
2021/12/18 07:21:29;;;;;;;;;24.50;20.75;;;;;19.10;38.31;103204.34;5019219;28;51231;-50
2021/12/18 07:23:54;;;;;;;;;21.75;21.25;;;;;19.06;38.07;103202.91;5009899;28;51350;-50
2021/12/18 07:26:20;;;;;;;;;23.50;18.75;;;;;19.01;38.25;103211.63;5019752;28;51454;-53
2021/12/18 07:28:45;;;;;;;;;20.50;20.25;;;;;18.95;37.94;103204.84;5017920;28;53527;-51
2021/12/18 07:31:10;;;;;;;;;22.75;18.50;;;;;18.90;37.83;103206.34;5006546;28;50986;-49
2021/12/18 07:33:37;;;;;;;;;19.00;16.75;;;;;18.86;38.06;103208.56;5009231;28;51073;-48
2021/12/18 07:36:06;;;;;;;;;21.00;20.00;;;;;18.83;37.83;103197.84;5016627;28;51115;-51
2021/12/18 07:38:31;;;;;;;;;15.75;14.50;;;;;18.84;37.84;103205.06;5006422;28;52113;-52
2021/12/18 07:40:57;;;;;;;;;15.25;14.50;;;;;18.88;38.20;103208.41;5005454;28;51096;-48
2021/12/18 07:43:22;;;;;;;;;10.25;9.00;;;;;18.98;38.13;103206.44;5016514;28;51434;-51
2021/12/18 07:45:47;;;;;;;;;10.50;10.50;;;;;19.06;38.23;103209.25;5007172;28;51399;-50
2021/12/18 07:48:13;;;;;;;;;12.00;9.00;;;;;19.16;38.52;103207.28;5003562;28;51220;-51
2021/12/18 07:50:38;;;;;;;;;11.00;9.00;;;;;19.27;38.49;103214.44;5013612;28;51264;-51
2021/12/18 07:53:04;;;;;;;;;7.00;7.00;;;;;19.36;38.56;103221.75;5014031;28;51526;-50
2021/12/18 07:55:29;;;;;;;;;7.00;6.25;;;;;19.46;38.70;103214.28;5021152;28;51317;-50
2021/12/18 07:57:55;;;;;;;;;6.00;6.00;;;;;19.56;38.81;103208.72;5004287;28;51955;-53
2021/12/18 08:00:21;;;;;;;;;7.75;6.25;;;;;19.64;38.59;103202.44;5009403;28;51075;-48
2021/12/18 08:02:47;;;;;;;;;7.50;4.50;;;;;19.74;38.58;103208.69;5011831;28;51410;-50
2021/12/18 08:05:14;;;;;;;;;4.50;4.50;;;;;19.82;39.03;103206.00;5001917;28;51162;-53
2021/12/18 08:07:40;;;;;;;;;7.00;5.00;;;;;19.91;38.79;103210.56;5016227;28;52266;-47
2021/12/18 08:10:06;;;;;;;;;4.00;4.00;;;;;19.98;38.75;103208.84;5008812;28;51091;-52
2021/12/18 08:12:31;;;;;;;;;4.75;4.75;;;;;20.06;38.86;103208.06;5016261;28;51227;-50
2021/12/18 08:14:58;;;;;;;;;9.25;6.00;;;;;20.15;39.11;103209.84;5007314;28;51018;-47
2021/12/18 08:17:23;;;;;;;;;4.50;3.25;;;;;20.24;38.73;103210.75;5007476;28;51705;-46
2021/12/18 08:19:49;;;;;;;;;4.75;3.00;;;;;20.30;38.85;103202.66;5015128;28;51109;-50
2021/12/18 08:22:14;;;;;;;;;5.50;5.00;;;;;20.37;39.04;103202.88;5023863;28;51176;-53
2021/12/18 08:24:39;;;;;;;;;6.50;4.00;;;;;20.43;39.14;103203.13;5012768;28;51204;-50
2021/12/18 08:27:05;;;;;;;;;4.75;4.50;;;;;20.50;38.94;103208.81;5004546;28;51105;-52
2021/12/18 08:29:30;;;;;;;;;5.75;4.75;;;;;20.56;38.72;103208.16;5016405;28;51007;-52
2021/12/18 08:31:55;;;;;;;;;6.75;5.00;;;;;20.63;38.92;103219.38;5012795;28;51340;-47
2021/12/18 08:34:22;;;;;;;;;4.75;4.50;;;;;20.69;38.53;103215.97;5002715;28;51520;-49
2021/12/18 08:36:48;;;;;;;;;2.75;2.75;;;;;20.75;38.76;103218.91;5003213;28;51685;-51
2021/12/18 08:39:14;;;;;;;;;3.75;3.75;;;;;20.81;38.44;103219.25;5019292;28;51233;-50
2021/12/18 08:41:42;;;;;;;;;4.00;4.00;;;;;20.87;38.53;103226.88;5016403;28;51267;-52
2021/12/18 08:44:07;;;;;;;;;6.75;3.75;;;;;20.89;39.25;103222.03;5006307;28;51114;-49
2021/12/18 08:46:34;;;;;;;;;3.75;3.25;;;;;20.88;39.32;103220.31;5009050;28;51527;-50
2021/12/18 08:49:00;;;;;;;;;6.25;3.50;;;;;20.87;39.19;103226.88;5021303;28;51332;-53
2021/12/18 08:51:25;;;;;;;;;5.50;3.75;;;;;20.85;39.25;103231.69;5012783;28;51203;-53
2021/12/18 08:53:50;;;;;;;;;4.50;3.00;;;;;20.87;39.45;103226.88;5003497;28;51244;-51
2021/12/18 08:56:16;;;;;;;;;4.50;3.00;;;;;20.92;39.36;103228.06;5007866;28;51814;-51
2021/12/18 08:58:41;;;;;;;;;3.00;3.00;;;;;20.98;39.04;103232.94;5003755;28;50998;-49
2021/12/18 09:01:06;;;;;;;;;3.50;3.50;;;;;21.05;38.95;103235.88;4999019;28;51104;-53
2021/12/18 09:03:32;;;;;;;;;4.25;4.25;;;;;21.11;39.00;103226.91;5004872;28;51674;-52
2021/12/18 09:05:57;;;;;;;;;8.00;5.50;;;;;21.15;38.96;103227.44;5005395;28;51929;-56
2021/12/18 09:08:23;;;;;;;;;4.00;4.00;;;;;21.15;38.76;103227.44;5011336;28;51196;-50
2021/12/18 09:10:49;;;;;;;;;4.25;4.25;;;;;21.13;38.84;103222.09;5012687;28;51441;-53
2021/12/18 09:13:14;;;;;;;;;6.50;5.50;;;;;21.10;38.61;103225.19;5012544;28;51346;-51
2021/12/18 09:15:39;;;;;;;;;4.50;4.50;;;;;21.10;38.93;103224.34;5008694;28;51156;-50
2021/12/18 09:18:05;;;;;;;;;6.50;5.75;;;;;21.11;38.98;103215.91;5009583;28;51135;-52
2021/12/18 09:20:31;;;;;;;;;5.50;4.25;;;;;21.17;38.82;103220.75;5012408;28;51057;-47
2021/12/18 09:22:59;;;;;;;;;7.50;5.00;;;;;21.23;38.67;103225.56;5022491;28;51124;-49
2021/12/18 09:25:24;;;;;;;;;5.00;5.00;;;;;21.30;38.39;103218.38;5006919;28;51029;-50
2021/12/18 09:27:50;;;;;;;;;5.25;4.00;;;;;21.37;38.35;103209.44;5019477;28;51062;-51
2021/12/18 09:30:15;;;;;;;;;5.00;5.00;;;;;21.43;38.26;103217.84;5009577;28;51299;-48
2021/12/18 09:32:40;;;;;;;;;4.50;4.25;;;;;21.45;37.65;103213.03;5004267;28;51763;-51
2021/12/18 09:35:08;;;;;;;;;6.25;6.25;;;;;21.45;37.43;103201.13;5008435;28;51347;-51
2021/12/18 09:37:33;;;;;;;;;6.75;5.00;;;;;21.42;37.83;103202.34;5003647;28;51441;-51
2021/12/18 09:39:59;;;;;;;;;7.00;7.00;;;;;21.45;37.27;103199.22;5004781;28;51251;-52
2021/12/18 09:42:24;;;;;;;;;7.00;5.25;;;;;21.50;37.88;103201.50;5026273;28;51131;-47
2021/12/18 09:44:51;;;;;;;;;6.75;5.75;;;;;21.56;37.88;103198.03;5008602;28;52145;-53
2021/12/18 09:47:18;;;;;;;;;5.00;4.00;;;;;21.61;37.41;103198.38;5006815;28;51654;-52
2021/12/18 09:49:44;;;;;;;;;5.25;5.00;;;;;21.66;37.57;103195.94;5006198;28;52066;-52
2021/12/18 09:52:10;;;;;;;;;4.50;3.00;;;;;21.66;37.51;103195.94;5003382;28;51129;-52
2021/12/18 09:54:36;;;;;;;;;6.50;6.50;;;;;21.66;38.00;103197.84;5006926;28;52075;-54
2021/12/18 09:57:01;;;;;;;;;7.25;6.25;;;;;21.62;37.72;103200.09;5005254;28;51114;-50
2021/12/18 09:59:27;;;;;;;;;5.00;5.00;;;;;21.55;37.73;103204.56;5010667;28;51977;-53
2021/12/18 10:01:52;;;;;;;;;7.00;6.00;;;;;21.48;38.32;103206.31;5006090;28;52184;-49
2021/12/18 10:04:28;;;;;;;;;5.00;5.00;;;;;21.42;39.20;103194.06;5012347;28;51188;-52
2021/12/18 10:06:56;;;;;;;;;6.50;4.50;;;;;21.44;39.49;103193.91;5009911;28;51192;-50
2021/12/18 10:09:22;;;;;;;;;5.25;3.75;;;;;21.49;39.04;103194.25;5013732;28;51277;-51
2021/12/18 10:11:55;;;;;;;;;6.00;4.33;;;;;21.54;38.99;103183.56;5007862;28;51358;-48
2021/12/18 10:14:43;;;;;;;;;4.50;3.50;;;;;21.60;39.50;103182.88;5011495;28;51050;-48
2021/12/18 10:17:28;;;;;;;;;6.00;5.75;;;;;21.61;39.62;103184.59;5011566;28;50991;-49
2021/12/18 10:20:16;;;;;;;;;6.00;5.00;;;;;21.59;39.59;103184.78;5009109;28;51141;-48
2021/12/18 10:22:53;;;;;;;;;8.25;7.50;;;;;21.58;39.96;103184.94;5008856;28;51130;-49
2021/12/18 10:25:22;;;;;;;;;4.00;3.50;;;;;21.55;40.34;103186.13;5009381;28;51727;-52
2021/12/18 10:27:57;;;;;;;;;4.00;3.75;;;;;21.53;39.98;103187.34;4998273;28;51370;-49
2021/12/18 10:30:23;;;;;;;;;6.00;6.00;;;;;21.51;40.12;103189.44;5015334;28;51093;-50
2021/12/18 10:33:15;;;;;;;;;5.00;5.00;;;;;21.55;40.48;103180.63;4996637;28;52107;-45
2021/12/18 10:35:52;;;;;;;;;4.75;3.25;;;;;21.62;40.49;103172.53;5008039;28;53114;-50
2021/12/18 10:38:49;;;;;;;;;7.00;4.75;;;;;21.73;40.49;103174.91;5000974;28;51405;-47
2021/12/18 10:41:25;;;;;;;;;5.25;3.75;;;;;21.81;40.33;103176.81;5001299;28;51144;-52
2021/12/18 10:43:54;;;;;;;;;4.50;4.25;;;;;21.82;40.50;103171.09;4999862;28;51415;-51
2021/12/18 10:46:20;;;;;;;;;3.25;3.25;;;;;21.84;39.89;103165.41;5000104;28;51150;-50
2021/12/18 10:49:10;;;;;;;;;4.50;3.75;;;;;21.83;40.03;103166.44;5013417;28;52149;-53
2021/12/18 10:51:38;;;;;;;;;2.25;2.25;;;;;21.81;40.07;103166.63;5004649;28;51196;-50
2021/12/18 10:54:18;;;;;;;;;6.00;3.00;;;;;21.80;40.65;103159.41;5009459;28;51356;-51
2021/12/18 10:56:46;;;;;;;;;4.75;4.00;;;;;21.79;40.60;103157.69;4994561;28;51898;-53
2021/12/18 10:59:26;;;;;;;;;6.25;5.00;;;;;21.84;40.58;103152.47;5007654;28;51247;-52
2021/12/18 11:01:54;;;;;;;;;4.00;4.00;;;;;21.92;39.99;103164.53;5014667;28;51329;-52
2021/12/18 11:04:28;;;;;;;;;3.00;3.00;;;;;22.00;39.90;103146.06;5010895;28;51259;-49
2021/12/18 11:06:55;;;;;;;;;5.00;5.00;;;;;22.08;39.78;103142.44;5009180;28;52228;-53
2021/12/18 11:09:31;;;;;;;;;4.75;4.00;;;;;22.13;39.86;103140.00;5002201;28;51253;-49
2021/12/18 11:14:45;;;;;;;;;4.50;3.50;;;;;22.12;39.78;103139.16;5007010;28;51074;-50
2021/12/18 11:17:13;;;;;;;;;6.25;5.00;;;;;22.09;40.11;103133.09;5000211;28;51953;-49
2021/12/18 11:19:41;;;;;;;;;3.50;3.00;;;;;22.06;40.23;103137.09;5008553;28;51264;-51
2021/12/18 11:22:13;;;;;;;;;3.00;3.00;;;;;22.03;40.20;103142.09;5012111;28;51167;-50
2021/12/18 11:24:59;;;;;;;;;5.00;5.00;;;;;22.00;40.29;103145.22;5001002;28;51366;-49
2021/12/18 11:27:25;;;;;;;;;4.00;4.00;;;;;21.98;39.96;103148.13;5014161;28;51530;-51
2021/12/18 11:30:01;;;;;;;;;5.00;5.00;;;;;22.02;40.22;103144.00;5003517;28;51229;-51
2021/12/18 11:32:29;;;;;;;;;5.25;5.25;;;;;22.09;39.54;103149.66;5004617;28;51669;-53
2021/12/18 11:34:56;;;;;;;;;7.75;6.00;;;;;22.15;39.56;103143.44;4998555;28;51267;-50
2021/12/18 11:37:24;;;;;;;;;5.00;4.00;;;;;22.19;39.45;103139.28;5001545;28;51455;-52
2021/12/18 11:39:51;;;;;;;;;4.75;4.75;;;;;22.20;39.86;103129.97;5027400;28;51283;-50
2021/12/18 11:42:17;;;;;;;;;6.25;4.25;;;;;22.18;40.06;103121.00;5004491;28;51147;-52
2021/12/18 11:44:51;;;;;;;;;6.00;6.00;;;;;22.15;39.52;103118.59;4997473;28;51331;-57
2021/12/18 11:47:29;;;;;;;;;6.50;6.50;;;;;22.10;39.50;103115.53;4997629;28;52283;-49
2021/12/18 11:50:01;;;;;;;;;7.25;6.00;;;;;22.09;40.05;103116.53;4993228;28;51249;-50
2021/12/18 11:52:28;;;;;;;;;6.75;6.00;;;;;22.05;39.85;103116.03;4996526;28;51185;-51
2021/12/18 11:54:58;;;;;;;;;9.00;7.50;;;;;22.03;39.88;103115.34;4998213;28;51241;-51
2021/12/18 11:57:49;;;;;;;;;7.50;5.75;;;;;22.08;39.59;103118.44;4997674;28;54049;-52
2021/12/18 12:00:17;;;;;;;;;4.25;4.25;;;;;22.16;39.56;103106.53;4994763;28;51250;-51
2021/12/18 12:02:51;;;;;;;;;5.25;5.25;;;;;22.23;40.05;103101.16;4999300;28;51177;-51
2021/12/18 12:05:19;;;;;;;;;8.00;7.75;;;;;22.29;39.88;103112.31;5007618;28;51217;-52
2021/12/18 12:07:46;;;;;;;;;7.50;7.00;;;;;22.31;40.07;103106.63;5002257;28;52057;-49
2021/12/18 12:10:47;;;;;;;;;5.50;4.50;;;;;22.29;40.02;103100.41;5003603;28;51710;-48